sensor_id;sensor_type;location;lat;lon;timestamp;P1;durP1;ratioP1;P2;durP2;ratioP2
79751;SDS011;69234;47.446;21.636;2024-03-17T00:00:31;47.60;;;46.63;;
79751;SDS011;69234;47.446;21.636;2024-03-17T00:01:03;49.50;;;47.93;;
79751;SDS011;69234;47.446;21.636;2024-03-17T00:01:34;49.87;;;48.40;;
79751;SDS011;69234;47.446;21.636;2024-03-17T00:02:06;48.70;;;47.27;;
79751;SDS011;69234;47.446;21.636;2024-03-17T00:02:37;47.43;;;46.13;;
79751;SDS011;69234;47.446;21.636;2024-03-17T00:03:08;46.97;;;45.60;;
79751;SDS011;69234;47.446;21.636;2024-03-17T00:03:39;47.77;;;46.33;;
79751;SDS011;69234;47.446;21.636;2024-03-17T00:04:10;48.03;;;46.73;;
79751;SDS011;69234;47.446;21.636;2024-03-17T00:04:40;48.37;;;47.13;;
79751;SDS011;69234;47.446;21.636;2024-03-17T00:05:13;48.57;;;47.40;;
79751;SDS011;69234;47.446;21.636;2024-03-17T00:05:44;46.47;;;45.00;;
79751;SDS011;69234;47.446;21.636;2024-03-17T00:06:15;48.20;;;46.60;;
79751;SDS011;69234;47.446;21.636;2024-03-17T00:06:47;48.47;;;47.03;;
79751;SDS011;69234;47.446;21.636;2024-03-17T00:07:18;48.13;;;46.80;;
79751;SDS011;69234;47.446;21.636;2024-03-17T00:07:49;46.87;;;46.00;;
79751;SDS011;69234;47.446;21.636;2024-03-17T00:08:20;47.20;;;46.73;;
79751;SDS011;69234;47.446;21.636;2024-03-17T00:08:51;46.43;;;45.87;;
79751;SDS011;69234;47.446;21.636;2024-03-17T00:09:22;46.10;;;44.90;;
79751;SDS011;69234;47.446;21.636;2024-03-17T00:09:54;46.83;;;45.47;;
79751;SDS011;69234;47.446;21.636;2024-03-17T00:10:25;47.87;;;46.63;;
79751;SDS011;69234;47.446;21.636;2024-03-17T00:10:56;48.07;;;46.83;;
79751;SDS011;69234;47.446;21.636;2024-03-17T00:11:27;46.67;;;45.23;;
79751;SDS011;69234;47.446;21.636;2024-03-17T00:11:58;48.27;;;47.13;;
79751;SDS011;69234;47.446;21.636;2024-03-17T00:12:29;48.30;;;47.07;;
79751;SDS011;69234;47.446;21.636;2024-03-17T00:13:00;48.20;;;46.83;;
79751;SDS011;69234;47.446;21.636;2024-03-17T00:13:31;49.43;;;47.73;;
79751;SDS011;69234;47.446;21.636;2024-03-17T00:14:02;51.33;;;49.60;;
79751;SDS011;69234;47.446;21.636;2024-03-17T00:14:33;49.10;;;47.60;;
79751;SDS011;69234;47.446;21.636;2024-03-17T00:15:05;50.57;;;49.13;;
79751;SDS011;69234;47.446;21.636;2024-03-17T00:15:36;51.03;;;49.40;;
79751;SDS011;69234;47.446;21.636;2024-03-17T00:16:07;50.20;;;48.93;;
79751;SDS011;69234;47.446;21.636;2024-03-17T00:16:39;50.40;;;49.07;;
79751;SDS011;69234;47.446;21.636;2024-03-17T00:17:10;50.47;;;49.00;;
79751;SDS011;69234;47.446;21.636;2024-03-17T00:17:41;52.37;;;50.80;;
79751;SDS011;69234;47.446;21.636;2024-03-17T00:18:12;50.17;;;48.70;;
79751;SDS011;69234;47.446;21.636;2024-03-17T00:18:43;50.77;;;49.23;;
79751;SDS011;69234;47.446;21.636;2024-03-17T00:19:16;49.60;;;48.43;;
79751;SDS011;69234;47.446;21.636;2024-03-17T00:19:47;50.37;;;49.20;;
79751;SDS011;69234;47.446;21.636;2024-03-17T00:20:18;50.93;;;49.87;;
79751;SDS011;69234;47.446;21.636;2024-03-17T00:20:50;49.97;;;49.00;;
79751;SDS011;69234;47.446;21.636;2024-03-17T00:21:21;49.43;;;48.63;;
79751;SDS011;69234;47.446;21.636;2024-03-17T00:21:52;50.33;;;49.03;;
79751;SDS011;69234;47.446;21.636;2024-03-17T00:22:23;50.57;;;48.83;;
79751;SDS011;69234;47.446;21.636;2024-03-17T00:22:54;48.50;;;46.83;;
79751;SDS011;69234;47.446;21.636;2024-03-17T00:23:25;48.90;;;47.23;;
79751;SDS011;69234;47.446;21.636;2024-03-17T00:23:56;48.23;;;46.57;;
79751;SDS011;69234;47.446;21.636;2024-03-17T00:24:27;47.03;;;45.57;;
79751;SDS011;69234;47.446;21.636;2024-03-17T00:25:05;48.10;;;46.73;;
79751;SDS011;69234;47.446;21.636;2024-03-17T00:25:38;48.93;;;47.33;;
79751;SDS011;69234;47.446;21.636;2024-03-17T00:26:10;47.93;;;46.27;;
79751;SDS011;69234;47.446;21.636;2024-03-17T00:26:41;46.83;;;45.43;;
79751;SDS011;69234;47.446;21.636;2024-03-17T00:27:12;48.43;;;47.20;;
79751;SDS011;69234;47.446;21.636;2024-03-17T00:27:43;46.23;;;44.90;;
79751;SDS011;69234;47.446;21.636;2024-03-17T00:28:15;48.67;;;47.00;;
79751;SDS011;69234;47.446;21.636;2024-03-17T00:28:46;47.60;;;46.13;;
79751;SDS011;69234;47.446;21.636;2024-03-17T00:29:20;47.57;;;46.33;;
79751;SDS011;69234;47.446;21.636;2024-03-17T00:29:51;48.40;;;46.87;;
79751;SDS011;69234;47.446;21.636;2024-03-17T00:30:22;48.77;;;47.13;;
79751;SDS011;69234;47.446;21.636;2024-03-17T00:30:53;49.23;;;47.60;;
79751;SDS011;69234;47.446;21.636;2024-03-17T00:31:24;47.97;;;46.37;;
79751;SDS011;69234;47.446;21.636;2024-03-17T00:31:55;47.73;;;46.73;;
79751;SDS011;69234;47.446;21.636;2024-03-17T00:32:27;48.33;;;46.97;;
79751;SDS011;69234;47.446;21.636;2024-03-17T00:32:58;46.13;;;45.10;;
79751;SDS011;69234;47.446;21.636;2024-03-17T00:33:29;46.00;;;44.93;;
79751;SDS011;69234;47.446;21.636;2024-03-17T00:34:00;48.87;;;47.57;;
79751;SDS011;69234;47.446;21.636;2024-03-17T00:34:31;49.13;;;47.63;;
79751;SDS011;69234;47.446;21.636;2024-03-17T00:35:02;47.53;;;46.93;;
79751;SDS011;69234;47.446;21.636;2024-03-17T00:35:34;48.37;;;47.13;;
79751;SDS011;69234;47.446;21.636;2024-03-17T00:36:05;49.03;;;47.60;;
79751;SDS011;69234;47.446;21.636;2024-03-17T00:36:37;49.30;;;47.60;;
79751;SDS011;69234;47.446;21.636;2024-03-17T00:37:08;49.33;;;47.80;;
79751;SDS011;69234;47.446;21.636;2024-03-17T00:37:39;47.43;;;46.20;;
79751;SDS011;69234;47.446;21.636;2024-03-17T00:38:10;45.23;;;44.33;;
79751;SDS011;69234;47.446;21.636;2024-03-17T00:38:41;46.57;;;45.43;;
79751;SDS011;69234;47.446;21.636;2024-03-17T00:39:12;47.63;;;46.17;;
79751;SDS011;69234;47.446;21.636;2024-03-17T00:39:44;48.03;;;46.50;;
79751;SDS011;69234;47.446;21.636;2024-03-17T00:40:15;49.53;;;47.87;;
79751;SDS011;69234;47.446;21.636;2024-03-17T00:40:50;48.73;;;47.23;;
79751;SDS011;69234;47.446;21.636;2024-03-17T00:41:21;47.90;;;46.77;;
79751;SDS011;69234;47.446;21.636;2024-03-17T00:41:52;46.70;;;45.93;;
79751;SDS011;69234;47.446;21.636;2024-03-17T00:42:23;47.83;;;46.47;;
79751;SDS011;69234;47.446;21.636;2024-03-17T00:42:53;47.57;;;46.00;;
79751;SDS011;69234;47.446;21.636;2024-03-17T00:43:24;47.40;;;45.97;;
79751;SDS011;69234;47.446;21.636;2024-03-17T00:43:55;47.43;;;46.03;;
79751;SDS011;69234;47.446;21.636;2024-03-17T00:44:27;46.30;;;44.87;;
79751;SDS011;69234;47.446;21.636;2024-03-17T00:44:58;47.27;;;45.63;;
79751;SDS011;69234;47.446;21.636;2024-03-17T00:45:30;47.40;;;45.97;;
79751;SDS011;69234;47.446;21.636;2024-03-17T00:46:01;49.17;;;47.73;;
79751;SDS011;69234;47.446;21.636;2024-03-17T00:46:32;48.00;;;46.87;;
79751;SDS011;69234;47.446;21.636;2024-03-17T00:47:03;47.63;;;46.33;;
79751;SDS011;69234;47.446;21.636;2024-03-17T00:47:34;48.50;;;47.10;;
79751;SDS011;69234;47.446;21.636;2024-03-17T00:48:05;48.23;;;46.67;;
79751;SDS011;69234;47.446;21.636;2024-03-17T00:48:36;47.90;;;46.53;;
79751;SDS011;69234;47.446;21.636;2024-03-17T00:49:08;47.03;;;45.87;;
79751;SDS011;69234;47.446;21.636;2024-03-17T00:49:40;47.77;;;46.37;;
79751;SDS011;69234;47.446;21.636;2024-03-17T00:50:11;48.97;;;47.40;;
79751;SDS011;69234;47.446;21.636;2024-03-17T00:50:42;48.63;;;47.23;;
79751;SDS011;69234;47.446;21.636;2024-03-17T00:51:16;47.00;;;45.63;;
79751;SDS011;69234;47.446;21.636;2024-03-17T00:51:47;47.87;;;46.40;;
79751;SDS011;69234;47.446;21.636;2024-03-17T00:52:20;47.77;;;46.37;;
79751;SDS011;69234;47.446;21.636;2024-03-17T00:52:51;47.27;;;45.90;;
79751;SDS011;69234;47.446;21.636;2024-03-17T00:53:22;47.67;;;46.30;;
79751;SDS011;69234;47.446;21.636;2024-03-17T00:53:52;48.10;;;46.57;;
79751;SDS011;69234;47.446;21.636;2024-03-17T00:54:23;48.07;;;46.50;;
79751;SDS011;69234;47.446;21.636;2024-03-17T00:54:55;48.90;;;47.17;;
79751;SDS011;69234;47.446;21.636;2024-03-17T00:55:26;49.20;;;47.67;;
79751;SDS011;69234;47.446;21.636;2024-03-17T00:55:57;49.73;;;48.13;;
79751;SDS011;69234;47.446;21.636;2024-03-17T00:56:28;49.27;;;47.73;;
79751;SDS011;69234;47.446;21.636;2024-03-17T00:56:59;50.07;;;48.60;;
79751;SDS011;69234;47.446;21.636;2024-03-17T00:57:30;49.77;;;48.50;;
79751;SDS011;69234;47.446;21.636;2024-03-17T00:58:01;48.27;;;47.13;;
79751;SDS011;69234;47.446;21.636;2024-03-17T00:58:32;49.37;;;48.10;;
79751;SDS011;69234;47.446;21.636;2024-03-17T00:59:03;48.43;;;46.97;;
79751;SDS011;69234;47.446;21.636;2024-03-17T00:59:33;49.50;;;47.73;;
79751;SDS011;69234;47.446;21.636;2024-03-17T01:00:05;48.47;;;47.27;;
79751;SDS011;69234;47.446;21.636;2024-03-17T01:00:36;49.47;;;48.00;;
79751;SDS011;69234;47.446;21.636;2024-03-17T01:01:07;48.37;;;46.70;;
79751;SDS011;69234;47.446;21.636;2024-03-17T01:01:38;49.90;;;48.27;;
79751;SDS011;69234;47.446;21.636;2024-03-17T01:02:10;49.90;;;48.43;;
79751;SDS011;69234;47.446;21.636;2024-03-17T01:02:46;49.47;;;48.03;;
79751;SDS011;69234;47.446;21.636;2024-03-17T01:03:17;49.63;;;48.10;;
79751;SDS011;69234;47.446;21.636;2024-03-17T01:03:48;47.63;;;47.27;;
79751;SDS011;69234;47.446;21.636;2024-03-17T01:04:19;47.27;;;46.47;;
79751;SDS011;69234;47.446;21.636;2024-03-17T01:04:50;47.90;;;46.77;;
79751;SDS011;69234;47.446;21.636;2024-03-17T01:05:21;48.50;;;47.20;;
79751;SDS011;69234;47.446;21.636;2024-03-17T01:05:52;48.43;;;46.93;;
79751;SDS011;69234;47.446;21.636;2024-03-17T01:06:23;48.47;;;46.70;;
79751;SDS011;69234;47.446;21.636;2024-03-17T01:06:54;49.83;;;48.23;;
79751;SDS011;69234;47.446;21.636;2024-03-17T01:07:25;47.97;;;47.10;;
79751;SDS011;69234;47.446;21.636;2024-03-17T01:07:56;46.53;;;45.33;;
79751;SDS011;69234;47.446;21.636;2024-03-17T01:08:27;47.40;;;46.43;;
79751;SDS011;69234;47.446;21.636;2024-03-17T01:08:58;47.70;;;46.53;;
79751;SDS011;69234;47.446;21.636;2024-03-17T01:09:29;47.63;;;46.27;;
79751;SDS011;69234;47.446;21.636;2024-03-17T01:10:00;47.63;;;46.33;;
79751;SDS011;69234;47.446;21.636;2024-03-17T01:10:31;45.50;;;45.07;;
79751;SDS011;69234;47.446;21.636;2024-03-17T01:11:02;48.73;;;47.37;;
79751;SDS011;69234;47.446;21.636;2024-03-17T01:11:33;48.00;;;46.37;;
79751;SDS011;69234;47.446;21.636;2024-03-17T01:12:04;49.17;;;47.60;;
79751;SDS011;69234;47.446;21.636;2024-03-17T01:12:39;47.60;;;46.33;;
79751;SDS011;69234;47.446;21.636;2024-03-17T01:13:10;47.53;;;46.03;;
79751;SDS011;69234;47.446;21.636;2024-03-17T01:13:41;48.73;;;47.20;;
79751;SDS011;69234;47.446;21.636;2024-03-17T01:14:13;48.57;;;47.17;;
79751;SDS011;69234;47.446;21.636;2024-03-17T01:14:44;49.47;;;48.03;;
79751;SDS011;69234;47.446;21.636;2024-03-17T01:15:15;49.97;;;48.33;;
79751;SDS011;69234;47.446;21.636;2024-03-17T01:15:50;49.87;;;48.23;;
79751;SDS011;69234;47.446;21.636;2024-03-17T01:16:22;50.07;;;48.40;;
79751;SDS011;69234;47.446;21.636;2024-03-17T01:16:55;50.17;;;48.57;;
79751;SDS011;69234;47.446;21.636;2024-03-17T01:17:27;48.20;;;46.83;;
79751;SDS011;69234;47.446;21.636;2024-03-17T01:17:58;48.20;;;47.20;;
79751;SDS011;69234;47.446;21.636;2024-03-17T01:18:29;50.47;;;48.97;;
79751;SDS011;69234;47.446;21.636;2024-03-17T01:19:00;49.33;;;47.80;;
79751;SDS011;69234;47.446;21.636;2024-03-17T01:19:31;49.00;;;47.90;;
79751;SDS011;69234;47.446;21.636;2024-03-17T01:20:02;47.37;;;46.13;;
79751;SDS011;69234;47.446;21.636;2024-03-17T01:20:34;48.47;;;47.23;;
79751;SDS011;69234;47.446;21.636;2024-03-17T01:21:07;48.77;;;47.73;;
79751;SDS011;69234;47.446;21.636;2024-03-17T01:21:38;48.93;;;48.03;;
79751;SDS011;69234;47.446;21.636;2024-03-17T01:22:09;48.47;;;47.10;;
79751;SDS011;69234;47.446;21.636;2024-03-17T01:22:40;49.27;;;47.60;;
79751;SDS011;69234;47.446;21.636;2024-03-17T01:23:12;49.83;;;48.23;;
79751;SDS011;69234;47.446;21.636;2024-03-17T01:23:44;48.37;;;46.90;;
79751;SDS011;69234;47.446;21.636;2024-03-17T01:24:14;49.17;;;47.70;;
79751;SDS011;69234;47.446;21.636;2024-03-17T01:24:47;49.30;;;48.03;;
79751;SDS011;69234;47.446;21.636;2024-03-17T01:25:19;48.20;;;47.23;;
79751;SDS011;69234;47.446;21.636;2024-03-17T01:25:50;48.50;;;47.40;;
79751;SDS011;69234;47.446;21.636;2024-03-17T01:26:21;48.40;;;46.83;;
79751;SDS011;69234;47.446;21.636;2024-03-17T01:26:51;48.83;;;47.47;;
79751;SDS011;69234;47.446;21.636;2024-03-17T01:27:23;49.17;;;47.80;;
79751;SDS011;69234;47.446;21.636;2024-03-17T01:27:54;50.53;;;49.00;;
79751;SDS011;69234;47.446;21.636;2024-03-17T01:28:25;51.13;;;49.63;;
79751;SDS011;69234;47.446;21.636;2024-03-17T01:28:57;47.63;;;46.53;;
79751;SDS011;69234;47.446;21.636;2024-03-17T01:29:28;49.00;;;48.07;;
79751;SDS011;69234;47.446;21.636;2024-03-17T01:29:59;50.87;;;49.30;;
79751;SDS011;69234;47.446;21.636;2024-03-17T01:30:30;49.77;;;48.30;;
79751;SDS011;69234;47.446;21.636;2024-03-17T01:31:05;49.43;;;48.10;;
79751;SDS011;69234;47.446;21.636;2024-03-17T01:31:37;49.27;;;48.10;;
79751;SDS011;69234;47.446;21.636;2024-03-17T01:32:08;49.73;;;48.63;;
79751;SDS011;69234;47.446;21.636;2024-03-17T01:32:41;48.63;;;47.57;;
79751;SDS011;69234;47.446;21.636;2024-03-17T01:33:11;50.87;;;49.57;;
79751;SDS011;69234;47.446;21.636;2024-03-17T01:33:42;49.70;;;48.43;;
79751;SDS011;69234;47.446;21.636;2024-03-17T01:34:13;49.40;;;48.20;;
79751;SDS011;69234;47.446;21.636;2024-03-17T01:34:44;49.47;;;48.37;;
79751;SDS011;69234;47.446;21.636;2024-03-17T01:35:16;49.87;;;48.67;;
79751;SDS011;69234;47.446;21.636;2024-03-17T01:35:47;51.10;;;50.00;;
79751;SDS011;69234;47.446;21.636;2024-03-17T01:36:18;52.27;;;50.87;;
79751;SDS011;69234;47.446;21.636;2024-03-17T01:36:49;52.17;;;50.70;;
79751;SDS011;69234;47.446;21.636;2024-03-17T01:37:20;50.67;;;49.43;;
79751;SDS011;69234;47.446;21.636;2024-03-17T01:37:51;51.60;;;50.53;;
79751;SDS011;69234;47.446;21.636;2024-03-17T01:38:22;49.37;;;48.50;;
79751;SDS011;69234;47.446;21.636;2024-03-17T01:38:53;49.77;;;48.90;;
79751;SDS011;69234;47.446;21.636;2024-03-17T01:39:24;51.77;;;50.33;;
79751;SDS011;69234;47.446;21.636;2024-03-17T01:39:55;51.67;;;50.27;;
79751;SDS011;69234;47.446;21.636;2024-03-17T01:40:26;50.83;;;49.63;;
79751;SDS011;69234;47.446;21.636;2024-03-17T01:40:58;50.47;;;49.53;;
79751;SDS011;69234;47.446;21.636;2024-03-17T01:41:29;50.23;;;49.40;;
79751;SDS011;69234;47.446;21.636;2024-03-17T01:42:00;51.03;;;49.93;;
79751;SDS011;69234;47.446;21.636;2024-03-17T01:42:31;53.87;;;52.23;;
79751;SDS011;69234;47.446;21.636;2024-03-17T01:43:02;52.40;;;50.77;;
79751;SDS011;69234;47.446;21.636;2024-03-17T01:43:33;52.20;;;51.07;;
79751;SDS011;69234;47.446;21.636;2024-03-17T01:44:04;51.43;;;50.53;;
79751;SDS011;69234;47.446;21.636;2024-03-17T01:44:35;51.20;;;50.73;;
79751;SDS011;69234;47.446;21.636;2024-03-17T01:45:51;51.47;;;50.70;;
79751;SDS011;69234;47.446;21.636;2024-03-17T01:46:01;50.90;;;49.80;;
79751;SDS011;69234;47.446;21.636;2024-03-17T01:46:33;51.23;;;50.13;;
79751;SDS011;69234;47.446;21.636;2024-03-17T01:47:04;52.57;;;51.53;;
79751;SDS011;69234;47.446;21.636;2024-03-17T01:47:36;51.47;;;50.17;;
79751;SDS011;69234;47.446;21.636;2024-03-17T01:48:08;51.93;;;50.57;;
79751;SDS011;69234;47.446;21.636;2024-03-17T01:48:46;51.47;;;50.30;;
79751;SDS011;69234;47.446;21.636;2024-03-17T01:49:17;51.63;;;50.63;;
79751;SDS011;69234;47.446;21.636;2024-03-17T01:49:50;53.83;;;52.67;;
79751;SDS011;69234;47.446;21.636;2024-03-17T01:50:22;50.63;;;49.63;;
79751;SDS011;69234;47.446;21.636;2024-03-17T01:50:55;51.37;;;50.20;;
79751;SDS011;69234;47.446;21.636;2024-03-17T01:51:27;52.03;;;50.93;;
79751;SDS011;69234;47.446;21.636;2024-03-17T01:51:58;49.53;;;48.40;;
79751;SDS011;69234;47.446;21.636;2024-03-17T01:52:29;52.40;;;51.17;;
79751;SDS011;69234;47.446;21.636;2024-03-17T01:53:01;51.80;;;50.83;;
79751;SDS011;69234;47.446;21.636;2024-03-17T01:53:35;52.63;;;51.73;;
79751;SDS011;69234;47.446;21.636;2024-03-17T01:54:07;52.07;;;51.23;;
79751;SDS011;69234;47.446;21.636;2024-03-17T01:54:39;54.07;;;53.10;;
79751;SDS011;69234;47.446;21.636;2024-03-17T01:55:12;53.70;;;52.63;;
79751;SDS011;69234;47.446;21.636;2024-03-17T01:55:43;53.23;;;52.17;;
79751;SDS011;69234;47.446;21.636;2024-03-17T01:56:17;53.63;;;52.67;;
79751;SDS011;69234;47.446;21.636;2024-03-17T01:56:49;53.23;;;52.10;;
79751;SDS011;69234;47.446;21.636;2024-03-17T01:57:20;51.67;;;50.80;;
79751;SDS011;69234;47.446;21.636;2024-03-17T01:57:51;51.83;;;50.97;;
79751;SDS011;69234;47.446;21.636;2024-03-17T01:58:24;52.80;;;51.83;;
79751;SDS011;69234;47.446;21.636;2024-03-17T01:58:56;52.97;;;51.93;;
79751;SDS011;69234;47.446;21.636;2024-03-17T01:59:28;53.07;;;52.13;;
79751;SDS011;69234;47.446;21.636;2024-03-17T01:59:59;52.23;;;51.27;;
79751;SDS011;69234;47.446;21.636;2024-03-17T02:00:30;53.10;;;51.70;;
79751;SDS011;69234;47.446;21.636;2024-03-17T02:01:03;53.10;;;51.83;;
79751;SDS011;69234;47.446;21.636;2024-03-17T02:01:35;52.80;;;51.57;;
79751;SDS011;69234;47.446;21.636;2024-03-17T02:02:07;52.27;;;51.10;;
79751;SDS011;69234;47.446;21.636;2024-03-17T02:02:38;51.90;;;50.80;;
79751;SDS011;69234;47.446;21.636;2024-03-17T02:03:09;50.83;;;49.63;;
79751;SDS011;69234;47.446;21.636;2024-03-17T02:03:40;53.83;;;52.77;;
79751;SDS011;69234;47.446;21.636;2024-03-17T02:04:12;52.17;;;51.23;;
79751;SDS011;69234;47.446;21.636;2024-03-17T02:04:42;53.17;;;52.17;;
79751;SDS011;69234;47.446;21.636;2024-03-17T02:05:13;53.57;;;52.30;;
79751;SDS011;69234;47.446;21.636;2024-03-17T02:05:44;52.63;;;51.43;;
79751;SDS011;69234;47.446;21.636;2024-03-17T02:06:15;52.33;;;51.20;;
79751;SDS011;69234;47.446;21.636;2024-03-17T02:06:47;54.20;;;53.07;;
79751;SDS011;69234;47.446;21.636;2024-03-17T02:07:18;55.07;;;53.90;;
79751;SDS011;69234;47.446;21.636;2024-03-17T02:07:48;53.03;;;51.73;;
79751;SDS011;69234;47.446;21.636;2024-03-17T02:08:20;54.80;;;53.50;;
79751;SDS011;69234;47.446;21.636;2024-03-17T02:08:53;53.73;;;52.77;;
79751;SDS011;69234;47.446;21.636;2024-03-17T02:09:25;56.13;;;54.77;;
79751;SDS011;69234;47.446;21.636;2024-03-17T02:09:56;54.53;;;53.37;;
79751;SDS011;69234;47.446;21.636;2024-03-17T02:10:27;51.70;;;50.80;;
79751;SDS011;69234;47.446;21.636;2024-03-17T02:10:58;52.53;;;51.90;;
79751;SDS011;69234;47.446;21.636;2024-03-17T02:11:30;52.57;;;51.73;;
79751;SDS011;69234;47.446;21.636;2024-03-17T02:12:03;54.13;;;53.00;;
79751;SDS011;69234;47.446;21.636;2024-03-17T02:12:35;55.97;;;54.63;;
79751;SDS011;69234;47.446;21.636;2024-03-17T02:13:06;55.10;;;53.77;;
79751;SDS011;69234;47.446;21.636;2024-03-17T02:13:38;55.07;;;53.87;;
79751;SDS011;69234;47.446;21.636;2024-03-17T02:14:08;53.43;;;52.47;;
79751;SDS011;69234;47.446;21.636;2024-03-17T02:14:39;53.67;;;52.53;;
79751;SDS011;69234;47.446;21.636;2024-03-17T02:15:10;53.53;;;52.30;;
79751;SDS011;69234;47.446;21.636;2024-03-17T02:15:41;54.00;;;52.90;;
79751;SDS011;69234;47.446;21.636;2024-03-17T02:16:12;54.70;;;53.87;;
79751;SDS011;69234;47.446;21.636;2024-03-17T02:16:44;54.17;;;53.63;;
79751;SDS011;69234;47.446;21.636;2024-03-17T02:17:14;53.57;;;52.83;;
79751;SDS011;69234;47.446;21.636;2024-03-17T02:17:45;52.53;;;51.57;;
79751;SDS011;69234;47.446;21.636;2024-03-17T02:18:16;53.03;;;51.93;;
79751;SDS011;69234;47.446;21.636;2024-03-17T02:18:48;52.23;;;51.33;;
79751;SDS011;69234;47.446;21.636;2024-03-17T02:19:19;53.10;;;52.33;;
79751;SDS011;69234;47.446;21.636;2024-03-17T02:19:51;52.90;;;52.17;;
79751;SDS011;69234;47.446;21.636;2024-03-17T02:20:22;51.23;;;50.60;;
79751;SDS011;69234;47.446;21.636;2024-03-17T02:21:13;52.23;;;51.23;;
79751;SDS011;69234;47.446;21.636;2024-03-17T02:21:46;52.27;;;51.27;;
79751;SDS011;69234;47.446;21.636;2024-03-17T02:22:17;52.40;;;51.23;;
79751;SDS011;69234;47.446;21.636;2024-03-17T02:22:48;53.40;;;52.37;;
79751;SDS011;69234;47.446;21.636;2024-03-17T02:23:19;51.33;;;50.43;;
79751;SDS011;69234;47.446;21.636;2024-03-17T02:23:50;52.47;;;51.50;;
79751;SDS011;69234;47.446;21.636;2024-03-17T02:24:22;52.77;;;51.47;;
79751;SDS011;69234;47.446;21.636;2024-03-17T02:24:52;51.77;;;50.70;;
79751;SDS011;69234;47.446;21.636;2024-03-17T02:25:24;51.80;;;50.93;;
79751;SDS011;69234;47.446;21.636;2024-03-17T02:25:54;50.97;;;50.13;;
79751;SDS011;69234;47.446;21.636;2024-03-17T02:26:26;50.47;;;49.50;;
79751;SDS011;69234;47.446;21.636;2024-03-17T02:26:57;51.90;;;51.00;;
79751;SDS011;69234;47.446;21.636;2024-03-17T02:27:29;50.60;;;49.37;;
79751;SDS011;69234;47.446;21.636;2024-03-17T02:28:00;51.47;;;50.37;;
79751;SDS011;69234;47.446;21.636;2024-03-17T02:28:38;52.70;;;51.83;;
79751;SDS011;69234;47.446;21.636;2024-03-17T02:29:13;51.93;;;51.03;;
79751;SDS011;69234;47.446;21.636;2024-03-17T02:29:44;52.07;;;51.23;;
79751;SDS011;69234;47.446;21.636;2024-03-17T02:30:15;50.93;;;50.17;;
79751;SDS011;69234;47.446;21.636;2024-03-17T02:30:46;51.20;;;50.60;;
79751;SDS011;69234;47.446;21.636;2024-03-17T02:31:17;51.90;;;51.03;;
79751;SDS011;69234;47.446;21.636;2024-03-17T02:31:48;53.47;;;52.57;;
79751;SDS011;69234;47.446;21.636;2024-03-17T02:32:19;52.93;;;52.03;;
79751;SDS011;69234;47.446;21.636;2024-03-17T02:32:53;52.97;;;52.13;;
79751;SDS011;69234;47.446;21.636;2024-03-17T02:33:25;52.17;;;51.37;;
79751;SDS011;69234;47.446;21.636;2024-03-17T02:33:56;52.60;;;51.60;;
79751;SDS011;69234;47.446;21.636;2024-03-17T02:34:27;51.03;;;50.17;;
79751;SDS011;69234;47.446;21.636;2024-03-17T02:34:58;51.53;;;50.40;;
79751;SDS011;69234;47.446;21.636;2024-03-17T02:35:29;52.43;;;51.40;;
79751;SDS011;69234;47.446;21.636;2024-03-17T02:36:00;51.27;;;50.53;;
79751;SDS011;69234;47.446;21.636;2024-03-17T02:36:31;50.67;;;50.03;;
79751;SDS011;69234;47.446;21.636;2024-03-17T02:37:02;50.07;;;49.27;;
79751;SDS011;69234;47.446;21.636;2024-03-17T02:37:34;51.03;;;50.07;;
79751;SDS011;69234;47.446;21.636;2024-03-17T02:38:05;50.60;;;49.87;;
79751;SDS011;69234;47.446;21.636;2024-03-17T02:38:40;51.23;;;50.57;;
79751;SDS011;69234;47.446;21.636;2024-03-17T02:39:30;52.30;;;51.53;;
79751;SDS011;69234;47.446;21.636;2024-03-17T02:40:02;51.77;;;51.13;;
79751;SDS011;69234;47.446;21.636;2024-03-17T02:40:35;52.07;;;51.43;;
79751;SDS011;69234;47.446;21.636;2024-03-17T02:41:06;50.70;;;49.77;;
79751;SDS011;69234;47.446;21.636;2024-03-17T02:41:37;51.57;;;50.43;;
79751;SDS011;69234;47.446;21.636;2024-03-17T02:42:12;51.40;;;50.50;;
79751;SDS011;69234;47.446;21.636;2024-03-17T02:42:43;51.63;;;50.83;;
79751;SDS011;69234;47.446;21.636;2024-03-17T02:43:15;52.60;;;51.87;;
79751;SDS011;69234;47.446;21.636;2024-03-17T02:43:46;52.40;;;51.60;;
79751;SDS011;69234;47.446;21.636;2024-03-17T02:44:18;48.67;;;47.87;;
79751;SDS011;69234;47.446;21.636;2024-03-17T02:44:49;50.47;;;49.70;;
79751;SDS011;69234;47.446;21.636;2024-03-17T02:45:20;51.93;;;50.70;;
79751;SDS011;69234;47.446;21.636;2024-03-17T02:45:51;50.77;;;49.43;;
79751;SDS011;69234;47.446;21.636;2024-03-17T02:46:22;52.37;;;51.33;;
79751;SDS011;69234;47.446;21.636;2024-03-17T02:46:53;53.43;;;52.03;;
79751;SDS011;69234;47.446;21.636;2024-03-17T02:47:24;50.73;;;49.67;;
79751;SDS011;69234;47.446;21.636;2024-03-17T02:47:55;51.50;;;50.43;;
79751;SDS011;69234;47.446;21.636;2024-03-17T02:48:26;53.07;;;52.13;;
79751;SDS011;69234;47.446;21.636;2024-03-17T02:48:57;53.87;;;52.87;;
79751;SDS011;69234;47.446;21.636;2024-03-17T02:49:28;52.17;;;51.17;;
79751;SDS011;69234;47.446;21.636;2024-03-17T02:50:07;53.10;;;52.30;;
79751;SDS011;69234;47.446;21.636;2024-03-17T02:50:39;53.07;;;52.13;;
79751;SDS011;69234;47.446;21.636;2024-03-17T02:51:13;52.13;;;51.17;;
79751;SDS011;69234;47.446;21.636;2024-03-17T02:51:45;54.30;;;52.90;;
79751;SDS011;69234;47.446;21.636;2024-03-17T02:52:16;53.77;;;52.43;;
79751;SDS011;69234;47.446;21.636;2024-03-17T02:52:47;51.67;;;50.77;;
79751;SDS011;69234;47.446;21.636;2024-03-17T02:53:18;52.53;;;51.53;;
79751;SDS011;69234;47.446;21.636;2024-03-17T02:53:49;53.57;;;52.53;;
79751;SDS011;69234;47.446;21.636;2024-03-17T02:54:21;51.93;;;51.23;;
79751;SDS011;69234;47.446;21.636;2024-03-17T02:54:52;52.47;;;51.70;;
79751;SDS011;69234;47.446;21.636;2024-03-17T02:55:23;53.73;;;52.67;;
79751;SDS011;69234;47.446;21.636;2024-03-17T02:55:56;54.10;;;53.03;;
79751;SDS011;69234;47.446;21.636;2024-03-17T02:56:27;53.80;;;52.80;;
79751;SDS011;69234;47.446;21.636;2024-03-17T02:56:58;54.50;;;53.23;;
79751;SDS011;69234;47.446;21.636;2024-03-17T02:57:29;52.77;;;51.73;;
79751;SDS011;69234;47.446;21.636;2024-03-17T02:58:01;52.80;;;51.47;;
79751;SDS011;69234;47.446;21.636;2024-03-17T02:58:33;54.00;;;52.53;;
79751;SDS011;69234;47.446;21.636;2024-03-17T02:59:09;52.43;;;51.37;;
79751;SDS011;69234;47.446;21.636;2024-03-17T02:59:40;53.03;;;52.03;;
79751;SDS011;69234;47.446;21.636;2024-03-17T03:00:11;52.70;;;51.93;;
79751;SDS011;69234;47.446;21.636;2024-03-17T03:00:43;53.53;;;52.47;;
79751;SDS011;69234;47.446;21.636;2024-03-17T03:01:15;53.40;;;52.17;;
79751;SDS011;69234;47.446;21.636;2024-03-17T03:01:46;52.63;;;51.40;;
79751;SDS011;69234;47.446;21.636;2024-03-17T03:02:17;52.37;;;51.37;;
79751;SDS011;69234;47.446;21.636;2024-03-17T03:02:49;52.27;;;51.23;;